Terminal Aerodrome Forecast
Issued by NWS Upton, NY

Home | Current Version | Previous Version | Text Only | Print | Product List | Glossary On
Versions: 1 2 3 4 5 6 7 8 9 10 11 12 13 14 15 16 17 18 19 20 21 22 23 24 25 26 27 28 29 30 31
000
FTUS41 KOKX 230231 AAA
TAFBDR
TAF AMD
KBDR 230231Z 2303/2324 VRB02KT P6SM SCT110 BKN250
     FM230600 VRB02KT 4SM BR SCT008 BKN250
     FM230900 VRB03KT 1/2SM FG BKN008
     FM231400 20007KT 3SM BR BKN020
     FM231600 20008KT P6SM BKN035=

USA.gov is the U.S. government's official web portal to all federal, state and local government web resources and services.